createdAt,value
2022-11-30T00:01:07.155Z,60.80
2022-11-30T00:03:33.625Z,60.80
2022-11-30T00:06:00.096Z,60.80
2022-11-30T00:08:26.552Z,60.70
2022-11-30T00:10:53.035Z,60.70
2022-11-30T00:13:19.503Z,60.60
2022-11-30T00:15:45.964Z,60.70
2022-11-30T00:18:12.422Z,60.70
2022-11-30T00:20:38.883Z,60.70
2022-11-30T00:23:05.340Z,60.70
2022-11-30T00:25:31.807Z,60.70
2022-11-30T00:28:01.432Z,60.70
2022-11-30T00:30:27.940Z,60.70
2022-11-30T00:32:54.454Z,60.60
2022-11-30T00:35:20.931Z,60.60
2022-11-30T00:37:47.407Z,60.60
2022-11-30T00:40:13.877Z,60.60
2022-11-30T00:42:40.346Z,60.70
2022-11-30T00:45:09.600Z,60.70
2022-11-30T00:47:36.195Z,60.70
2022-11-30T00:50:02.646Z,60.70
2022-11-30T00:52:29.144Z,60.70
2022-11-30T00:54:55.607Z,60.70
2022-11-30T00:57:22.078Z,60.70
2022-11-30T00:59:48.520Z,60.70
2022-11-30T01:02:15.036Z,60.70
2022-11-30T01:04:41.537Z,60.70
2022-11-30T01:07:08.026Z,60.80
2022-11-30T01:09:34.496Z,60.80
2022-11-30T01:12:00.938Z,60.80
2022-11-30T01:14:27.395Z,60.70
2022-11-30T01:16:56.391Z,60.70
2022-11-30T01:19:22.990Z,60.80
2022-11-30T01:21:49.455Z,60.70
2022-11-30T01:24:15.914Z,60.70
2022-11-30T01:26:42.374Z,60.70
2022-11-30T01:29:08.831Z,60.70
2022-11-30T01:31:35.292Z,60.50
2022-11-30T01:34:01.747Z,60.70
2022-11-30T01:36:28.210Z,60.60
2022-11-30T01:38:54.694Z,60.70
2022-11-30T01:41:21.221Z,60.80
2022-11-30T01:43:47.788Z,60.80
2022-11-30T01:46:14.320Z,60.80
2022-11-30T01:48:41.038Z,60.80
2022-11-30T01:51:07.514Z,60.80
2022-11-30T01:53:34.051Z,60.80
2022-11-30T01:56:00.525Z,60.80
2022-11-30T01:58:26.990Z,60.70
2022-11-30T02:00:53.465Z,60.80
2022-11-30T02:03:19.927Z,60.80
2022-11-30T02:05:46.395Z,60.80
2022-11-30T02:08:12.966Z,60.70
2022-11-30T02:10:39.602Z,60.70
2022-11-30T02:13:06.062Z,60.80
2022-11-30T02:15:32.593Z,60.80
2022-11-30T02:17:59.142Z,60.80
2022-11-30T02:20:25.628Z,60.80
2022-11-30T02:22:59.455Z,60.80
2022-11-30T02:25:25.919Z,60.80
2022-11-30T02:27:52.366Z,60.80
2022-11-30T02:30:18.897Z,60.70
2022-11-30T02:32:45.362Z,60.70
2022-11-30T02:35:11.804Z,60.70
2022-11-30T02:37:38.271Z,60.70
2022-11-30T02:40:04.731Z,60.80
2022-11-30T02:42:31.164Z,60.70
2022-11-30T02:44:57.618Z,60.80
2022-11-30T02:47:24.077Z,60.80
2022-11-30T02:49:50.546Z,60.70
2022-11-30T02:52:17.010Z,60.70
2022-11-30T02:54:43.487Z,60.80
2022-11-30T02:57:09.963Z,60.70
2022-11-30T02:59:36.420Z,60.50
2022-11-30T03:02:02.897Z,60.70
2022-11-30T03:04:29.354Z,60.70
2022-11-30T03:06:55.804Z,60.60
2022-11-30T03:09:22.270Z,60.70
2022-11-30T03:11:52.394Z,60.50
2022-11-30T03:14:18.873Z,60.70
2022-11-30T03:16:45.348Z,60.70
2022-11-30T03:19:11.821Z,60.70
2022-11-30T03:21:38.286Z,60.60
2022-11-30T03:24:04.732Z,60.70
2022-11-30T03:26:31.197Z,60.60
2022-11-30T03:29:00.112Z,60.70
2022-11-30T03:31:26.626Z,60.60
2022-11-30T03:33:53.104Z,60.60
2022-11-30T03:36:19.572Z,60.70
2022-11-30T03:38:46.015Z,60.70
2022-11-30T03:41:12.469Z,60.60
2022-11-30T03:43:38.934Z,60.60
2022-11-30T03:46:05.458Z,60.60
2022-11-30T03:48:31.935Z,60.60
2022-11-30T03:50:58.399Z,60.50
2022-11-30T03:53:24.851Z,60.60
2022-11-30T03:55:51.314Z,60.60
2022-11-30T03:58:17.773Z,60.60
2022-11-30T04:00:46.324Z,60.60
2022-11-30T04:03:12.816Z,60.60
2022-11-30T04:05:39.329Z,60.50
2022-11-30T04:08:05.792Z,60.50
2022-11-30T04:10:32.264Z,60.50
2022-11-30T04:12:58.744Z,60.50
2022-11-30T04:15:25.198Z,60.60
2022-11-30T04:17:51.663Z,60.50
2022-11-30T04:20:18.153Z,60.50
2022-11-30T04:22:44.638Z,60.50
2022-11-30T04:25:11.089Z,60.50
2022-11-30T04:27:37.559Z,60.40
2022-11-30T04:30:04.028Z,60.40
2022-11-30T04:32:30.517Z,60.30
2022-11-30T04:34:56.984Z,60.40
2022-11-30T04:37:23.452Z,60.40
2022-11-30T04:39:49.919Z,60.40
2022-11-30T04:42:16.389Z,60.40
2022-11-30T04:44:42.861Z,60.40
2022-11-30T04:47:09.315Z,60.40
2022-11-30T04:49:37.835Z,60.30
2022-11-30T04:52:04.303Z,60.30
2022-11-30T04:54:30.757Z,60.30
2022-11-30T04:56:57.229Z,60.40
2022-11-30T04:59:23.710Z,60.30
2022-11-30T05:01:50.221Z,60.30
2022-11-30T05:04:16.697Z,60.20
2022-11-30T05:06:43.244Z,60.30
2022-11-30T05:09:09.716Z,60.30
2022-11-30T05:11:36.175Z,60.30
2022-11-30T05:14:02.629Z,60.30
2022-11-30T05:16:29.163Z,60.20
2022-11-30T05:18:55.678Z,60.20
2022-11-30T05:21:22.157Z,60.20
2022-11-30T05:23:48.656Z,59.90
2022-11-30T05:26:15.142Z,60.10
2022-11-30T05:28:41.648Z,60.10
2022-11-30T05:31:08.157Z,60.10
2022-11-30T05:33:34.662Z,60.20
2022-11-30T05:36:04.546Z,60.10
2022-11-30T05:38:33.730Z,60.00
2022-11-30T05:41:00.340Z,60.10
2022-11-30T05:43:26.784Z,60.00
2022-11-30T05:45:53.243Z,60.00
2022-11-30T05:48:19.698Z,60.00
2022-11-30T05:50:46.158Z,60.00
2022-11-30T05:53:12.631Z,60.00
2022-11-30T05:55:41.651Z,60.00
2022-11-30T05:58:08.117Z,60.00
2022-11-30T06:00:34.591Z,60.00
2022-11-30T06:03:01.178Z,60.00
2022-11-30T06:05:27.830Z,60.00
2022-11-30T06:07:54.348Z,60.00
2022-11-30T06:10:20.832Z,59.90
2022-11-30T06:12:47.288Z,59.90
2022-11-30T06:15:13.759Z,59.90
2022-11-30T06:17:40.247Z,59.90
2022-11-30T06:20:06.742Z,59.90
2022-11-30T06:22:33.228Z,59.90
2022-11-30T06:24:59.704Z,59.90
2022-11-30T06:27:26.168Z,59.80
2022-11-30T06:29:52.684Z,59.80
2022-11-30T06:32:19.152Z,59.90
2022-11-30T06:34:45.968Z,59.90
2022-11-30T06:37:12.749Z,59.80
2022-11-30T06:40:08.738Z,59.70
2022-11-30T06:42:25.678Z,59.90
2022-11-30T06:44:52.155Z,59.80
2022-11-30T06:47:18.689Z,59.80
2022-11-30T06:49:45.145Z,59.60
2022-11-30T06:52:11.615Z,59.80
2022-11-30T06:54:38.071Z,59.70
2022-11-30T06:57:04.741Z,59.70
2022-11-30T06:59:31.245Z,59.70
2022-11-30T07:01:59.025Z,59.70
2022-11-30T07:04:28.143Z,59.70
2022-11-30T07:06:54.636Z,59.70
2022-11-30T07:09:21.085Z,59.70
2022-11-30T07:11:47.545Z,59.70
2022-11-30T07:14:14.013Z,59.70
2022-11-30T07:16:40.510Z,59.70
2022-11-30T07:19:07.028Z,59.60
2022-11-30T07:21:33.478Z,59.70
2022-11-30T07:23:59.936Z,59.70
2022-11-30T07:26:26.417Z,59.60
2022-11-30T07:28:52.877Z,59.50
2022-11-30T07:31:19.420Z,59.50
2022-11-30T07:33:45.982Z,59.60
2022-11-30T07:36:12.431Z,59.50
2022-11-30T07:38:38.889Z,59.60
2022-11-30T07:41:05.373Z,59.60
2022-11-30T07:43:31.846Z,59.50
2022-11-30T07:45:58.377Z,59.50
2022-11-30T07:48:24.845Z,59.50
2022-11-30T07:50:54.126Z,59.50
2022-11-30T07:53:20.585Z,59.50
2022-11-30T07:55:47.089Z,59.50
2022-11-30T07:58:17.265Z,59.50
2022-11-30T08:00:44.243Z,59.40
2022-11-30T08:03:10.780Z,59.50
2022-11-30T08:05:37.251Z,59.50
2022-11-30T08:08:03.700Z,59.40
2022-11-30T08:10:30.155Z,59.40
2022-11-30T08:12:56.628Z,59.40
2022-11-30T08:15:28.975Z,59.40
2022-11-30T08:17:58.522Z,59.50
2022-11-30T08:20:25.057Z,59.50
2022-11-30T08:22:52.229Z,59.50
2022-11-30T08:25:18.672Z,59.40
2022-11-30T08:27:45.136Z,59.40
2022-11-30T08:30:11.607Z,59.40
2022-11-30T08:32:38.077Z,59.40
2022-11-30T08:35:04.556Z,59.40
2022-11-30T08:37:31.037Z,59.40
2022-11-30T08:40:01.145Z,59.40
2022-11-30T08:42:27.578Z,59.40
2022-11-30T08:44:54.056Z,59.30
2022-11-30T08:47:20.516Z,59.30
2022-11-30T08:49:47.004Z,59.30
2022-11-30T08:52:18.154Z,59.40
2022-11-30T08:54:45.852Z,59.40
2022-11-30T08:57:13.009Z,59.40
2022-11-30T08:59:44.639Z,59.30
2022-11-30T09:02:11.236Z,59.30
2022-11-30T09:04:37.763Z,59.30
2022-11-30T09:07:04.256Z,59.30
2022-11-30T09:09:30.720Z,59.30
2022-11-30T09:11:59.273Z,59.30
2022-11-30T09:14:25.740Z,59.40
2022-11-30T09:16:52.228Z,59.30
2022-11-30T09:19:18.710Z,59.30
2022-11-30T09:21:51.283Z,59.20
2022-11-30T09:24:18.538Z,59.30
2022-11-30T09:26:44.992Z,59.20
2022-11-30T09:29:11.481Z,59.30
2022-11-30T09:31:37.936Z,59.30
2022-11-30T09:34:04.409Z,59.30
2022-11-30T09:36:30.880Z,59.20
2022-11-30T09:38:57.343Z,59.30
2022-11-30T09:41:23.828Z,59.20
2022-11-30T09:43:50.324Z,59.20
2022-11-30T09:46:17.007Z,59.20
2022-11-30T09:48:43.550Z,59.10
2022-11-30T09:51:10.019Z,59.10
2022-11-30T09:53:36.494Z,59.20
2022-11-30T09:56:02.967Z,59.10
2022-11-30T09:58:29.436Z,59.10
2022-11-30T10:00:55.904Z,59.20
2022-11-30T10:03:22.450Z,59.20
2022-11-30T10:05:48.981Z,59.20
2022-11-30T10:08:17.951Z,59.20
2022-11-30T10:10:44.763Z,59.10
2022-11-30T10:13:11.304Z,59.20
2022-11-30T10:15:37.828Z,59.10
2022-11-30T10:18:04.340Z,59.10
2022-11-30T10:20:30.816Z,59.10
2022-11-30T10:22:57.307Z,59.10
2022-11-30T10:25:23.781Z,59.10
2022-11-30T10:27:50.224Z,59.10
2022-11-30T10:30:16.827Z,59.10
2022-11-30T10:32:43.387Z,59.00
2022-11-30T10:35:09.856Z,59.10
2022-11-30T10:37:36.308Z,59.10
2022-11-30T10:40:02.774Z,59.10
2022-11-30T10:42:29.226Z,59.10
2022-11-30T10:44:55.682Z,59.00
2022-11-30T10:47:22.153Z,59.10
2022-11-30T10:52:28.997Z,59.10
2022-11-30T10:55:00.510Z,59.10
2022-11-30T10:57:28.854Z,59.00
2022-11-30T10:59:55.309Z,59.00
2022-11-30T11:02:21.803Z,59.00
2022-11-30T11:04:48.286Z,59.00
2022-11-30T11:07:14.921Z,59.00
2022-11-30T11:09:41.482Z,59.00
2022-11-30T11:12:07.937Z,59.10
2022-11-30T11:14:37.992Z,59.00
2022-11-30T11:17:04.834Z,59.00
2022-11-30T11:19:31.304Z,59.00
2022-11-30T11:21:57.767Z,59.00
2022-11-30T11:24:24.235Z,59.00
2022-11-30T11:26:50.707Z,59.00
2022-11-30T11:29:17.167Z,59.00
2022-11-30T11:31:43.644Z,59.10
2022-11-30T11:34:10.116Z,59.10
2022-11-30T11:36:36.567Z,59.10
2022-11-30T11:39:03.059Z,59.10
2022-11-30T11:41:29.507Z,59.00
2022-11-30T11:43:55.964Z,59.00
2022-11-30T11:46:22.455Z,58.90
2022-11-30T11:48:48.939Z,59.00
2022-11-30T11:51:15.441Z,59.10
2022-11-30T11:53:46.294Z,59.00
2022-11-30T11:56:14.034Z,59.00
2022-11-30T11:58:40.541Z,59.10
2022-11-30T12:01:38.041Z,59.00
2022-11-30T12:03:53.564Z,59.10
2022-11-30T12:06:20.053Z,59.10
2022-11-30T12:08:46.525Z,59.10
2022-11-30T12:11:12.991Z,59.00
2022-11-30T12:13:39.443Z,59.00
2022-11-30T12:16:05.958Z,58.90
2022-11-30T12:18:32.439Z,59.00
2022-11-30T12:20:58.884Z,59.00
2022-11-30T12:23:25.352Z,59.00
2022-11-30T12:25:51.832Z,59.00
2022-11-30T12:28:18.288Z,59.00
2022-11-30T12:30:44.766Z,59.00
2022-11-30T12:33:11.268Z,59.00
2022-11-30T12:35:37.720Z,58.90
2022-11-30T12:38:04.181Z,58.90
2022-11-30T12:40:30.717Z,59.00
2022-11-30T12:42:57.171Z,58.90
2022-11-30T12:45:30.856Z,58.90
2022-11-30T12:47:57.342Z,58.90
2022-11-30T12:50:23.807Z,58.90
2022-11-30T12:52:50.266Z,58.80
2022-11-30T12:55:16.710Z,58.80
2022-11-30T12:57:43.178Z,58.80
2022-11-30T13:00:09.632Z,58.80
2022-11-30T13:02:36.117Z,58.80
2022-11-30T13:05:02.564Z,58.90
2022-11-30T13:07:29.115Z,58.90
2022-11-30T13:09:55.927Z,58.90
2022-11-30T13:12:22.430Z,58.90
2022-11-30T13:14:49.141Z,58.90
2022-11-30T13:17:15.741Z,58.90
2022-11-30T13:19:42.191Z,58.90
2022-11-30T13:22:08.669Z,58.90
2022-11-30T13:24:35.131Z,58.90
2022-11-30T13:27:01.588Z,58.90
2022-11-30T13:29:28.170Z,58.90
2022-11-30T13:31:54.675Z,58.90
2022-11-30T13:34:21.224Z,58.80
2022-11-30T13:36:47.705Z,58.80
2022-11-30T13:39:14.183Z,58.80
2022-11-30T13:41:40.656Z,58.80
2022-11-30T13:44:07.273Z,58.80
2022-11-30T13:46:33.787Z,58.90
2022-11-30T13:49:00.369Z,58.80
2022-11-30T13:51:26.911Z,58.80
2022-11-30T13:54:02.537Z,58.80
2022-11-30T13:56:38.847Z,58.80
2022-11-30T13:59:05.300Z,58.80
2022-11-30T14:01:31.776Z,58.80
2022-11-30T14:03:58.237Z,58.80
2022-11-30T14:09:05.040Z,58.80
2022-11-30T14:11:31.515Z,58.80
2022-11-30T14:13:57.984Z,58.70
2022-11-30T14:16:24.464Z,58.70
2022-11-30T14:18:50.927Z,58.80
2022-11-30T14:21:17.472Z,58.80
2022-11-30T14:23:46.743Z,58.80
2022-11-30T14:26:13.362Z,58.80
2022-11-30T14:28:39.952Z,58.80
2022-11-30T14:31:06.465Z,58.80
2022-11-30T14:33:32.943Z,58.70
2022-11-30T14:35:59.404Z,58.80
2022-11-30T14:38:25.881Z,58.70
2022-11-30T14:40:52.422Z,58.80
2022-11-30T14:43:18.872Z,58.80
2022-11-30T14:45:45.356Z,58.70
2022-11-30T14:48:11.832Z,58.70
2022-11-30T14:50:38.340Z,58.80
2022-11-30T14:53:04.793Z,58.70
2022-11-30T14:55:33.383Z,58.70
2022-11-30T14:58:03.987Z,58.70
2022-11-30T15:00:33.603Z,58.60
2022-11-30T15:03:00.129Z,58.60
2022-11-30T15:05:26.615Z,58.60
2022-11-30T15:07:53.135Z,58.70
2022-11-30T15:10:19.686Z,58.60
2022-11-30T15:15:26.552Z,58.70
2022-11-30T15:17:53.014Z,58.70
2022-11-30T15:20:19.493Z,58.70
2022-11-30T15:22:45.960Z,58.60
2022-11-30T15:25:12.408Z,58.60
2022-11-30T15:27:38.877Z,58.70
2022-11-30T15:30:05.341Z,58.60
2022-11-30T15:32:31.802Z,58.60
2022-11-30T15:34:58.340Z,58.60
2022-11-30T15:37:24.816Z,58.60
2022-11-30T15:39:51.303Z,58.50
2022-11-30T15:42:17.898Z,58.50
2022-11-30T15:44:44.355Z,58.60
2022-11-30T15:47:10.916Z,58.60
2022-11-30T15:49:37.431Z,58.60
2022-11-30T15:52:03.907Z,58.70
2022-11-30T15:54:30.375Z,58.60
2022-11-30T15:56:56.845Z,58.60
2022-11-30T15:59:23.314Z,58.40
2022-11-30T16:01:51.908Z,58.60
2022-11-30T16:04:18.398Z,58.60
2022-11-30T16:06:44.882Z,58.60
2022-11-30T16:09:11.341Z,58.60
2022-11-30T16:11:37.808Z,58.60
2022-11-30T16:14:04.248Z,58.60
2022-11-30T16:16:30.836Z,58.60
2022-11-30T16:18:57.329Z,58.50
2022-11-30T16:21:23.804Z,58.50
2022-11-30T16:23:50.255Z,58.60
2022-11-30T16:26:36.039Z,58.60
2022-11-30T16:29:03.206Z,58.50
2022-11-30T16:31:29.708Z,58.50
2022-11-30T16:33:56.764Z,58.50
2022-11-30T16:36:23.244Z,58.50
2022-11-30T16:38:49.697Z,58.50
2022-11-30T16:41:16.159Z,58.40
2022-11-30T16:43:42.824Z,58.50
2022-11-30T16:46:09.326Z,58.50
2022-11-30T16:48:35.816Z,58.50
2022-11-30T16:53:42.600Z,58.50
2022-11-30T16:56:09.136Z,58.50
2022-11-30T16:58:35.591Z,58.50
2022-11-30T17:01:02.136Z,58.40
2022-11-30T17:03:28.634Z,58.40
2022-11-30T17:05:55.087Z,58.30
2022-11-30T17:08:21.554Z,58.30
2022-11-30T17:10:48.076Z,58.30
2022-11-30T17:13:14.543Z,58.40
2022-11-30T17:15:41.003Z,58.30
2022-11-30T17:18:07.490Z,58.40
2022-11-30T17:20:33.966Z,58.40
2022-11-30T17:23:00.429Z,58.40
2022-11-30T17:25:26.894Z,58.40
2022-11-30T17:27:53.370Z,58.30
2022-11-30T17:30:19.821Z,58.40
2022-11-30T17:32:46.307Z,58.30
2022-11-30T17:35:12.778Z,58.20
2022-11-30T17:37:39.265Z,58.30
2022-11-30T17:40:06.229Z,58.30
2022-11-30T17:42:32.685Z,58.30
2022-11-30T17:44:59.150Z,58.20
2022-11-30T17:47:25.645Z,58.20
2022-11-30T17:49:52.129Z,58.20
2022-11-30T17:52:18.663Z,58.20
2022-11-30T17:54:45.254Z,58.20
2022-11-30T17:57:11.885Z,58.20
2022-11-30T17:59:38.360Z,58.20
2022-11-30T18:02:04.859Z,58.20
2022-11-30T18:04:31.397Z,58.20
2022-11-30T18:06:57.869Z,58.20
2022-11-30T18:09:24.317Z,58.20
2022-11-30T18:11:56.584Z,58.20
2022-11-30T18:14:23.103Z,58.10
2022-11-30T18:16:49.572Z,58.10
2022-11-30T18:19:16.047Z,58.00
2022-11-30T18:21:42.518Z,58.10
2022-11-30T18:24:08.993Z,58.20
2022-11-30T18:26:35.656Z,58.10
2022-11-30T18:29:02.194Z,58.20
2022-11-30T18:31:28.719Z,58.20
2022-11-30T18:33:55.230Z,58.10
2022-11-30T18:36:21.712Z,58.10
2022-11-30T18:38:48.169Z,58.10
2022-11-30T18:41:14.633Z,58.10
2022-11-30T18:43:41.107Z,58.10
2022-11-30T18:46:12.099Z,58.10
2022-11-30T18:48:38.664Z,58.10
2022-11-30T18:51:05.112Z,58.10
2022-11-30T18:53:31.584Z,58.10
2022-11-30T18:55:58.203Z,58.10
2022-11-30T18:58:24.698Z,58.10
2022-11-30T19:00:51.163Z,58.10
2022-11-30T19:03:18.168Z,58.10
2022-11-30T19:05:44.666Z,58.00
2022-11-30T19:08:11.141Z,58.00
2022-11-30T19:10:37.617Z,58.00
2022-11-30T19:13:04.118Z,57.90
2022-11-30T19:15:30.588Z,57.90
2022-11-30T19:17:57.083Z,57.90
2022-11-30T19:20:23.569Z,57.90
2022-11-30T19:22:50.034Z,57.90
2022-11-30T19:25:18.973Z,57.90
2022-11-30T19:27:46.928Z,57.90
2022-11-30T19:30:13.388Z,58.00
2022-11-30T19:32:39.856Z,57.90
2022-11-30T19:35:06.362Z,57.90
2022-11-30T19:37:32.831Z,57.90
2022-11-30T19:39:59.312Z,58.00
2022-11-30T19:42:25.819Z,58.00
2022-11-30T19:44:52.296Z,58.00
2022-11-30T19:47:18.764Z,57.90
2022-11-30T19:49:45.217Z,57.80
2022-11-30T19:54:51.984Z,57.90
2022-11-30T19:57:18.448Z,57.90
2022-11-30T19:59:44.926Z,57.80
2022-11-30T20:02:11.426Z,57.80
2022-11-30T20:04:37.961Z,57.90
2022-11-30T20:07:04.399Z,57.90
2022-11-30T20:09:30.903Z,57.90
2022-11-30T20:11:57.365Z,57.90
2022-11-30T20:14:23.852Z,57.80
2022-11-30T20:16:50.322Z,57.80
2022-11-30T20:19:16.796Z,57.90
2022-11-30T20:21:43.259Z,57.80
2022-11-30T20:24:09.790Z,57.80
2022-11-30T20:26:36.270Z,57.90
2022-11-30T20:29:02.754Z,57.80
2022-11-30T20:31:29.224Z,57.80
2022-11-30T20:33:55.683Z,57.90
2022-11-30T20:36:22.128Z,57.80
2022-11-30T20:38:48.620Z,57.80
2022-11-30T20:41:15.095Z,57.90
2022-11-30T20:43:41.553Z,57.80
2022-11-30T20:46:08.060Z,57.70
2022-11-30T20:48:34.544Z,57.70
2022-11-30T20:51:28.665Z,57.70
2022-11-30T20:53:47.474Z,57.70
2022-11-30T20:56:13.930Z,57.70
2022-11-30T20:58:40.403Z,57.70
2022-11-30T21:01:06.962Z,57.70
2022-11-30T21:03:33.535Z,57.70
2022-11-30T21:06:00.009Z,57.60
2022-11-30T21:08:26.496Z,57.70
2022-11-30T21:10:52.980Z,57.70
2022-11-30T21:13:22.278Z,57.60
2022-11-30T21:15:48.820Z,57.70
2022-11-30T21:18:15.287Z,57.70
2022-11-30T21:20:41.782Z,57.70
2022-11-30T21:23:08.249Z,57.70
2022-11-30T21:25:34.750Z,57.70
2022-11-30T21:28:01.220Z,57.50
2022-11-30T21:30:28.221Z,57.60
2022-11-30T21:32:54.681Z,57.60
2022-11-30T21:35:21.151Z,57.60
2022-11-30T21:37:47.631Z,57.60
2022-11-30T21:40:14.106Z,57.60
2022-11-30T21:42:40.580Z,57.60
2022-11-30T21:45:07.064Z,57.50
2022-11-30T21:47:33.541Z,57.70
2022-11-30T21:50:00.029Z,57.50
2022-11-30T21:52:26.542Z,57.60
2022-11-30T21:54:52.997Z,57.60
2022-11-30T21:57:19.490Z,57.60
2022-11-30T21:59:46.303Z,57.50
2022-11-30T22:02:12.980Z,57.50
2022-11-30T22:04:39.428Z,57.50
2022-11-30T22:07:05.882Z,57.50
2022-11-30T22:09:32.366Z,57.40
2022-11-30T22:11:58.871Z,57.40
2022-11-30T22:14:25.327Z,57.40
2022-11-30T22:16:51.773Z,57.40
2022-11-30T22:19:18.796Z,57.40
2022-11-30T22:21:49.652Z,57.40
2022-11-30T22:24:16.619Z,57.50
2022-11-30T22:26:43.087Z,57.50
2022-11-30T22:29:09.533Z,57.50
2022-11-30T22:31:36.024Z,57.50
2022-11-30T22:34:02.550Z,57.40
2022-11-30T22:36:29.055Z,57.50
2022-11-30T22:38:55.527Z,57.40
2022-11-30T22:41:22.012Z,57.50
2022-11-30T22:43:48.464Z,57.50
2022-11-30T22:46:15.011Z,57.50
2022-11-30T22:48:41.570Z,57.50
2022-11-30T22:51:08.065Z,57.50
2022-11-30T22:53:34.546Z,57.40
2022-11-30T22:56:01.062Z,57.40
2022-11-30T22:58:27.587Z,57.50
2022-11-30T23:00:54.029Z,57.40
2022-11-30T23:03:20.601Z,57.40
2022-11-30T23:05:47.154Z,57.40
2022-11-30T23:08:13.659Z,57.30
2022-11-30T23:10:40.165Z,57.30
2022-11-30T23:13:06.642Z,57.40
2022-11-30T23:15:33.102Z,57.40
2022-11-30T23:17:59.615Z,57.30
2022-11-30T23:20:26.059Z,57.40
2022-11-30T23:22:52.561Z,57.40
2022-11-30T23:25:19.031Z,57.40
2022-11-30T23:27:45.509Z,57.50
2022-11-30T23:30:11.984Z,57.40
2022-11-30T23:32:38.447Z,57.50
2022-11-30T23:35:04.907Z,57.40
2022-11-30T23:37:31.436Z,57.40
2022-11-30T23:39:57.883Z,57.40
2022-11-30T23:42:24.337Z,57.40
2022-11-30T23:44:50.810Z,57.40
2022-11-30T23:47:18.531Z,57.40
2022-11-30T23:49:45.170Z,57.40
2022-11-30T23:52:11.625Z,57.30
2022-11-30T23:54:38.094Z,57.40
2022-11-30T23:57:06.607Z,57.40
2022-11-30T23:59:33.075Z,57.40
